createdAt,value
2019-02-23T00:00:28.804Z,43.02
2019-02-23T00:05:33.202Z,43.05
2019-02-23T00:10:35.939Z,42.87
2019-02-23T00:15:38.734Z,43.08
2019-02-23T00:20:41.580Z,43.34
2019-02-23T00:25:44.701Z,43.51
2019-02-23T00:30:47.154Z,43.20
2019-02-23T00:35:49.403Z,43.52
2019-02-23T00:40:51.714Z,43.67
2019-02-23T00:45:54.205Z,44.07
2019-02-23T00:50:56.500Z,44.19
2019-02-23T00:55:58.690Z,44.29
2019-02-23T01:01:00.945Z,44.05
2019-02-23T01:06:04.105Z,44.04
2019-02-23T01:11:07.454Z,44.24
2019-02-23T01:16:09.905Z,44.61
2019-02-23T01:21:12.787Z,44.61
2019-02-23T01:26:15.126Z,45.04
2019-02-23T01:31:17.585Z,45.13
2019-02-23T01:36:19.836Z,45.24
2019-02-23T01:41:23.149Z,45.64
2019-02-23T01:46:25.695Z,45.48
2019-02-23T01:51:29.008Z,45.08
2019-02-23T01:56:31.610Z,45.15
2019-02-23T02:01:34.215Z,45.62
2019-02-23T02:06:37.282Z,45.77
2019-02-23T02:11:39.883Z,45.52
2019-02-23T02:16:42.373Z,45.99
2019-02-23T02:21:45.006Z,46.14
2019-02-23T02:26:47.587Z,46.52
2019-02-23T02:31:50.480Z,46.66
2019-02-23T02:36:53.277Z,46.97
2019-02-23T02:41:55.560Z,47.23
2019-02-23T02:46:58.582Z,47.51
2019-02-23T02:52:00.954Z,47.77
2019-02-23T02:57:03.384Z,47.65
2019-02-23T03:02:05.877Z,47.84
2019-02-23T03:07:08.476Z,48.18
2019-02-23T03:12:11.073Z,48.39
2019-02-23T03:17:14.178Z,48.28
2019-02-23T03:22:17.588Z,48.76
2019-02-23T03:27:19.873Z,48.55
2019-02-23T03:32:22.981Z,48.88
2019-02-23T03:37:26.260Z,48.69
2019-02-23T03:42:28.582Z,48.78
2019-02-23T03:47:31.087Z,49.25
2019-02-23T03:52:34.329Z,49.21
2019-02-23T03:57:36.575Z,49.39
2019-02-23T04:02:38.799Z,49.55
2019-02-23T04:07:41.121Z,49.56
2019-02-23T04:12:43.431Z,49.53
2019-02-23T04:17:45.713Z,49.76
2019-02-23T04:22:48.080Z,49.97
2019-02-23T04:27:51.105Z,49.80
2019-02-23T04:32:53.327Z,49.78
2019-02-23T04:37:56.285Z,49.79
2019-02-23T04:42:59.368Z,49.61
2019-02-23T04:48:01.610Z,49.27
2019-02-23T04:53:04.129Z,49.42
2019-02-23T04:58:06.695Z,48.67
2019-02-23T05:03:08.924Z,49.44
2019-02-23T05:08:11.154Z,49.78
2019-02-23T05:13:13.725Z,50.19
2019-02-23T05:18:16.748Z,50.08
2019-02-23T05:23:19.599Z,50.38
2019-02-23T05:28:22.637Z,49.96
2019-02-23T05:33:24.884Z,49.54
2019-02-23T05:38:27.580Z,49.78
2019-02-23T05:43:30.153Z,49.84
2019-02-23T05:48:33.283Z,49.60
2019-02-23T05:53:35.485Z,49.64
2019-02-23T05:58:38.823Z,49.34
2019-02-23T06:03:41.512Z,49.75
2019-02-23T06:08:44.583Z,49.69
2019-02-23T06:13:47.609Z,49.60
2019-02-23T06:18:50.463Z,49.46
2019-02-23T06:23:53.274Z,50.03
2019-02-23T06:28:55.864Z,50.21
2019-02-23T06:33:58.955Z,50.47
2019-02-23T06:39:01.440Z,50.64
2019-02-23T06:44:06.134Z,50.87
2019-02-23T06:49:08.775Z,51.04
2019-02-23T06:54:11.563Z,50.09
2019-02-23T06:59:14.634Z,50.63
2019-02-23T07:04:17.441Z,50.32
2019-02-23T07:09:20.590Z,50.06
2019-02-23T07:14:23.010Z,49.39
2019-02-23T07:19:25.731Z,49.18
2019-02-23T07:24:28.230Z,49.14
2019-02-23T07:29:32.406Z,49.23
2019-02-23T07:34:35.165Z,48.49
2019-02-23T07:39:37.646Z,48.60
2019-02-23T07:44:40.016Z,48.39
2019-02-23T08:01:19.883Z,48.48
2019-02-23T08:06:22.362Z,48.41
2019-02-23T08:11:24.755Z,48.13
2019-02-23T08:16:26.917Z,47.04
2019-02-23T08:21:29.157Z,45.87
2019-02-23T08:26:31.892Z,45.69
2019-02-23T08:31:34.109Z,43.60
2019-02-23T08:36:36.460Z,43.32
2019-02-23T08:41:38.637Z,42.58
2019-02-23T08:46:40.950Z,41.20
2019-02-23T08:51:43.146Z,40.41
2019-02-23T08:56:45.577Z,40.28
2019-02-23T09:01:48.290Z,38.47
2019-02-23T09:06:50.469Z,37.88
2019-02-23T09:11:53.148Z,36.28
2019-02-23T09:16:55.824Z,36.03
2019-02-23T09:21:58.322Z,35.03
2019-02-23T09:27:00.737Z,33.72
2019-02-23T09:32:03.123Z,33.45
2019-02-23T09:37:05.585Z,32.28
2019-02-23T09:42:08.521Z,31.98
2019-02-23T09:47:11.295Z,29.34
2019-02-23T09:52:13.447Z,29.23
2019-02-23T09:57:16.604Z,30.15
2019-02-23T10:02:18.760Z,29.09
2019-02-23T10:07:20.931Z,28.63
2019-02-23T10:12:23.617Z,27.70
2019-02-23T10:17:25.846Z,27.61
2019-02-23T10:22:28.037Z,27.61
2019-02-23T11:05:14.661Z,100.00
2019-02-23T11:20:16.935Z,100.00
2019-02-23T11:25:19.758Z,100.00
2019-02-23T11:30:22.393Z,100.00
2019-02-23T11:35:25.049Z,0.00
2019-02-23T11:40:27.334Z,100.00
2019-02-23T11:45:31.023Z,100.00
2019-02-23T11:50:34.876Z,0.00
2019-02-23T11:55:37.248Z,0.00
2019-02-23T12:00:40.316Z,0.00
2019-02-23T12:05:43.763Z,0.00
2019-02-23T12:10:47.244Z,26.71
2019-02-23T12:15:50.243Z,100.00
2019-02-23T12:20:52.811Z,100.00
2019-02-23T12:25:55.272Z,100.00
2019-02-23T12:30:57.763Z,100.00
2019-02-23T12:36:01.219Z,100.00
2019-02-23T12:41:03.584Z,100.00
2019-02-23T12:46:05.893Z,100.00
2019-02-23T12:51:08.874Z,0.00
2019-02-23T12:56:11.750Z,0.00
2019-02-23T13:01:14.120Z,0.00
2019-02-23T13:06:17.183Z,0.00
2019-02-23T13:11:20.021Z,0.00
2019-02-23T13:17:17.540Z,0.00
2019-02-23T13:22:54.204Z,0.00
2019-02-23T13:28:54.439Z,0.00
2019-02-23T13:34:54.723Z,0.00
2019-02-23T13:40:34.950Z,0.00
2019-02-23T13:46:01.282Z,0.00
2019-02-23T13:51:28.382Z,0.00
2019-02-23T13:56:56.187Z,0.00
2019-02-23T14:03:13.390Z,0.00
2019-02-23T14:09:08.195Z,0.00
2019-02-23T14:14:54.303Z,0.00
2019-02-23T14:20:55.882Z,0.00
2019-02-23T14:26:50.336Z,0.00
2019-02-23T14:32:28.852Z,0.00
2019-02-23T14:38:33.213Z,0.00
2019-02-23T14:44:24.955Z,0.00
2019-02-23T14:50:47.115Z,0.00
2019-02-23T14:56:33.494Z,21.57
2019-02-23T15:02:14.982Z,21.92
2019-02-23T15:08:10.457Z,22.07
2019-02-23T15:13:46.623Z,22.40
2019-02-23T15:19:12.950Z,22.41
2019-02-23T15:25:13.343Z,22.06
2019-02-23T15:30:33.836Z,21.91
2019-02-23T15:36:41.895Z,21.65
2019-02-23T15:42:38.479Z,0.00
2019-02-23T15:48:13.964Z,49.60
2019-02-23T15:53:16.770Z,49.60
2019-02-23T15:58:19.457Z,23.88
2019-02-23T16:03:22.500Z,22.64
2019-02-23T16:08:28.380Z,24.16
2019-02-23T16:13:30.731Z,24.31
2019-02-23T16:18:34.223Z,24.31
2019-02-23T16:23:37.299Z,24.54
2019-02-23T16:28:39.495Z,24.89
2019-02-23T16:33:42.498Z,25.18
2019-02-23T16:38:45.521Z,25.59
2019-02-23T16:43:48.548Z,25.81
2019-02-23T16:48:51.270Z,26.06
2019-02-23T16:54:07.925Z,26.02
2019-02-23T16:59:10.952Z,26.50
2019-02-23T17:04:13.185Z,26.92
2019-02-23T17:09:15.573Z,27.40
2019-02-23T17:14:18.687Z,27.92
2019-02-23T17:19:21.384Z,28.43
2019-02-23T17:31:20.137Z,30.32
2019-02-23T17:36:22.988Z,31.18
2019-02-23T17:41:26.167Z,31.57
2019-02-23T17:46:29.296Z,31.95
2019-02-23T17:51:31.601Z,32.28
2019-02-23T17:56:34.837Z,0.00
2019-02-23T18:01:37.213Z,0.00
2019-02-23T18:06:44.272Z,0.00
2019-02-23T18:11:46.795Z,0.00
2019-02-23T18:16:49.121Z,0.00
2019-02-23T18:21:51.404Z,0.00
2019-02-23T18:26:53.840Z,0.00
2019-02-23T18:31:56.184Z,0.00
2019-02-23T18:37:00.463Z,0.00
2019-02-23T18:42:02.946Z,0.00
2019-02-23T18:47:05.784Z,0.00
2019-02-23T18:52:08.988Z,0.00
2019-02-23T18:57:11.440Z,0.00
2019-02-23T19:02:13.976Z,0.00
2019-02-23T19:07:16.270Z,0.00
2019-02-23T19:12:18.543Z,0.00
2019-02-23T19:17:23.692Z,0.00
2019-02-23T19:22:48.667Z,0.00
2019-02-23T19:27:52.989Z,0.00
2019-02-23T19:32:55.736Z,0.00
2019-02-23T19:37:58.072Z,0.00
2019-02-23T19:43:00.442Z,0.00
2019-02-23T19:48:03.424Z,0.00
2019-02-23T19:53:06.680Z,0.00
2019-02-23T19:58:10.154Z,0.00
2019-02-23T20:03:17.145Z,0.00
2019-02-23T20:08:19.749Z,0.00
2019-02-23T20:13:24.255Z,0.00
2019-02-23T20:18:26.994Z,0.00
2019-02-23T20:23:30.898Z,0.00
2019-02-23T20:29:00.966Z,100.00
2019-02-23T20:34:05.821Z,100.00
2019-02-23T20:39:08.916Z,100.00
2019-02-23T20:44:16.279Z,100.00
2019-02-23T20:49:19.857Z,100.00
2019-02-23T20:54:22.504Z,100.00
2019-02-23T20:59:25.017Z,100.00
2019-02-23T21:04:28.440Z,100.00
2019-02-23T21:09:31.316Z,100.00
2019-02-23T21:14:36.815Z,100.00
2019-02-23T21:19:41.109Z,100.00
2019-02-23T21:24:44.330Z,100.00
2019-02-23T21:29:47.451Z,100.00
2019-02-23T21:34:49.822Z,100.00
2019-02-23T21:39:58.364Z,100.00
2019-02-23T21:45:07.965Z,100.00
2019-02-23T21:50:21.886Z,100.00
2019-02-23T22:00:47.267Z,100.00
2019-02-23T22:05:50.294Z,100.00
2019-02-23T22:10:52.572Z,100.00
2019-02-23T22:15:55.219Z,100.00
2019-02-23T22:20:58.404Z,100.00
2019-02-23T22:26:01.136Z,100.00
2019-02-23T22:31:03.924Z,100.00
2019-02-23T22:36:06.774Z,100.00
2019-02-23T23:01:58.363Z,40.65
2019-02-23T23:07:00.571Z,41.75
2019-02-23T23:12:03.071Z,42.03
2019-02-23T23:17:05.961Z,42.24
2019-02-23T23:22:08.120Z,42.59
2019-02-23T23:27:11.854Z,43.01
2019-02-23T23:32:14.550Z,43.10
2019-02-23T23:37:16.848Z,43.51
2019-02-23T23:42:19.129Z,43.93
2019-02-23T23:47:22.209Z,44.24
2019-02-23T23:52:24.709Z,44.40
2019-02-23T23:57:27.399Z,44.47
